Time;durP1;ratioP1;P1;durP2;ratioP2;P2;SDS_P1;SDS_P2;PMS_P1;PMS_P2;Temp;Humidity;BMP_temperature;BMP_pressure;BME280_temperature;BME280_humidity;BME280_pressure;Samples;Min_cycle;Max_cycle;Signal;HPM_P1;HPM_P2
2023/04/03 00:01:32;;;;;;;1999.90;999.90;;;2.90;99.90;;;;;;5060430;28;20041;-69
2023/04/03 00:03:57;;;;;;;1999.90;999.90;;;2.90;99.90;;;;;;5058543;28;20047;-69
2023/04/03 00:06:24;;;;;;;1999.90;999.90;;;2.90;99.90;;;;;;5064123;28;20036;-70
2023/04/03 00:08:51;;;;;;;1999.90;999.90;;;2.90;99.90;;;;;;5060728;28;20037;-69
2023/04/03 00:11:17;;;;;;;1999.90;999.90;;;2.90;99.90;;;;;;5042730;28;20068;-69
2023/04/03 00:13:43;;;;;;;1999.90;999.90;;;2.90;99.90;;;;;;5058275;28;20120;-69
2023/04/03 00:16:10;;;;;;;1999.90;999.90;;;2.90;99.90;;;;;;5046511;28;20090;-69
2023/04/03 00:18:37;;;;;;;1999.90;999.90;;;2.90;99.90;;;;;;5061537;28;20558;-70
2023/04/03 00:21:03;;;;;;;1999.90;999.90;;;2.90;99.90;;;;;;5063169;28;20609;-69
2023/04/03 00:23:29;;;;;;;1999.90;999.90;;;2.80;99.90;;;;;;5044563;28;20040;-69
2023/04/03 00:25:55;;;;;;;1999.90;999.90;;;2.80;99.90;;;;;;5047225;28;20056;-69
2023/04/03 00:28:21;;;;;;;1999.90;999.90;;;2.80;99.90;;;;;;5042236;28;20476;-69
2023/04/03 00:30:49;;;;;;;1999.90;999.90;;;2.70;99.90;;;;;;5063574;28;20422;-69
2023/04/03 00:33:15;;;;;;;1999.90;999.90;;;2.70;99.90;;;;;;5061502;28;20044;-70
2023/04/03 00:35:41;;;;;;;1999.90;999.90;;;2.60;99.90;;;;;;5059201;28;20652;-69
2023/04/03 00:38:07;;;;;;;1999.90;999.90;;;2.60;99.90;;;;;;5047297;28;20037;-69
2023/04/03 00:40:41;;;;;;;1999.90;999.90;;;2.50;99.90;;;;;;5062834;28;20044;-69
2023/04/03 00:43:21;;;;;;;1999.90;999.90;;;2.50;99.90;;;;;;5061807;28;20044;-69
2023/04/03 00:45:50;;;;;;;1999.90;999.90;;;2.40;99.90;;;;;;5044275;28;20147;-69
2023/04/03 00:48:21;;;;;;;1999.90;999.90;;;2.40;99.90;;;;;;5062957;28;20565;-69
2023/04/03 00:50:48;;;;;;;1999.90;999.90;;;2.30;99.90;;;;;;5057964;28;20036;-69
2023/04/03 00:53:22;;;;;;;1999.90;999.90;;;2.30;99.90;;;;;;5059176;28;20174;-69
2023/04/03 00:55:49;;;;;;;1999.90;999.90;;;2.30;99.90;;;;;;5060553;28;20478;-69
2023/04/03 00:58:17;;;;;;;1999.90;999.90;;;2.30;99.90;;;;;;5060634;28;20079;-69
2023/04/03 01:00:49;;;;;;;1999.90;999.90;;;2.20;99.90;;;;;;5055485;28;20040;-69
2023/04/03 01:03:14;;;;;;;1999.90;999.90;;;2.20;99.90;;;;;;5078911;28;20040;-70
2023/04/03 01:05:40;;;;;;;1999.90;999.90;;;2.20;99.90;;;;;;5045207;28;20495;-69
2023/04/03 01:08:06;;;;;;;1999.90;999.90;;;2.20;99.90;;;;;;5046122;28;20528;-69
2023/04/03 01:10:32;;;;;;;1999.90;999.90;;;2.10;99.90;;;;;;5060539;28;20039;-69
2023/04/03 01:12:59;;;;;;;1999.90;999.90;;;2.10;99.90;;;;;;5059826;28;20442;-69
2023/04/03 01:15:28;;;;;;;1999.90;999.90;;;2.00;99.90;;;;;;5062490;28;20485;-69
2023/04/03 01:17:56;;;;;;;1999.90;999.90;;;2.00;99.90;;;;;;5059859;28;20106;-70
2023/04/03 01:20:28;;;;;;;1999.90;999.90;;;2.00;99.90;;;;;;5060035;28;20040;-69
2023/04/03 01:22:57;;;;;;;1999.90;999.90;;;1.90;99.90;;;;;;5063071;28;20068;-69
2023/04/03 01:25:23;;;;;;;1999.90;999.90;;;1.90;99.90;;;;;;5044361;28;20064;-70
2023/04/03 01:27:49;;;;;;;1999.90;999.90;;;1.80;99.90;;;;;;5058968;28;20052;-69
2023/04/03 01:30:18;;;;;;;1999.90;999.90;;;1.80;99.90;;;;;;5060938;28;20047;-69
2023/04/03 01:32:44;;;;;;;1999.90;999.90;;;1.80;99.90;;;;;;5046305;28;20029;-69
2023/04/03 01:35:10;;;;;;;1999.90;999.90;;;1.70;99.90;;;;;;5062972;28;20121;-69
2023/04/03 01:37:36;;;;;;;1999.90;999.90;;;1.70;99.90;;;;;;5057510;28;20078;-70
2023/04/03 01:40:03;;;;;;;1999.90;999.90;;;1.70;99.90;;;;;;5063377;28;20048;-69
2023/04/03 01:42:29;;;;;;;1999.90;999.90;;;1.60;99.90;;;;;;5062973;28;20047;-69
2023/04/03 01:44:55;;;;;;;1999.90;999.90;;;1.50;99.90;;;;;;5057794;28;20070;-70
2023/04/03 01:47:21;;;;;;;1999.90;999.90;;;1.40;99.90;;;;;;5076725;28;20044;-70
2023/04/03 01:49:47;;;;;;;1999.90;999.90;;;1.40;99.90;;;;;;5059318;28;20056;-69
2023/04/03 01:52:13;;;;;;;1999.90;999.90;;;1.30;99.90;;;;;;5060916;28;20060;-70
2023/04/03 01:54:38;;;;;;;1999.90;999.90;;;1.30;99.90;;;;;;5063009;28;20040;-69
2023/04/03 01:57:04;;;;;;;1999.90;999.90;;;1.30;99.90;;;;;;5047651;28;20564;-69
2023/04/03 01:59:30;;;;;;;1999.90;999.90;;;1.20;99.90;;;;;;5060768;28;20064;-69
2023/04/03 02:01:55;;;;;;;1999.90;999.90;;;1.20;99.90;;;;;;5057476;28;20044;-69
2023/04/03 02:04:21;;;;;;;1999.90;999.90;;;1.20;99.90;;;;;;5063106;28;20094;-69
2023/04/03 02:06:46;;;;;;;1999.90;999.90;;;1.10;99.90;;;;;;5074031;28;20432;-69
2023/04/03 02:09:12;;;;;;;1999.90;999.90;;;1.10;99.90;;;;;;5061318;28;20032;-69
2023/04/03 02:11:38;;;;;;;1999.90;999.90;;;1.10;99.90;;;;;;5066445;28;20497;-69
2023/04/03 02:14:03;;;;;;;1999.90;999.90;;;1.00;99.90;;;;;;5064284;28;20068;-69
2023/04/03 02:16:30;;;;;;;1999.90;999.90;;;1.00;99.90;;;;;;5063285;28;20539;-69
2023/04/03 02:18:56;;;;;;;1999.90;999.90;;;1.00;99.90;;;;;;5066097;28;20044;-69
2023/04/03 02:21:22;;;;;;;1999.90;999.90;;;0.90;99.90;;;;;;5065140;28;20048;-71
2023/04/03 02:23:47;;;;;;;1999.90;999.90;;;0.90;99.90;;;;;;5049117;28;20133;-69
2023/04/03 02:26:15;;;;;;;1999.90;999.90;;;0.90;99.90;;;;;;5065858;28;20052;-69
2023/04/03 02:28:41;;;;;;;1999.90;999.90;;;0.90;99.90;;;;;;5062754;28;20091;-69
2023/04/03 02:31:07;;;;;;;1999.90;999.90;;;0.80;99.90;;;;;;5066775;28;20076;-69
2023/04/03 02:33:36;;;;;;;1999.90;999.90;;;0.90;99.90;;;;;;5060477;28;20043;-69
2023/04/03 02:36:03;;;;;;;1999.90;999.90;;;0.80;99.90;;;;;;5041386;28;20041;-69
2023/04/03 02:38:28;;;;;;;1999.90;999.90;;;0.80;99.90;;;;;;5066657;28;20036;-69
2023/04/03 02:41:06;;;;;;;1999.90;999.90;;;0.80;99.90;;;;;;5066062;28;20044;-69
2023/04/03 02:43:33;;;;;;;1999.90;999.90;;;0.70;99.90;;;;;;5060749;28;20076;-69
2023/04/03 02:45:59;;;;;;;1999.90;999.90;;;0.70;99.90;;;;;;5065590;28;20044;-69
2023/04/03 02:48:25;;;;;;;1999.90;999.90;;;0.70;99.90;;;;;;5060999;28;20121;-69
2023/04/03 02:50:50;;;;;;;1999.90;999.90;;;0.70;99.90;;;;;;5067232;28;20044;-69
2023/04/03 02:53:17;;;;;;;1999.90;999.90;;;0.60;99.90;;;;;;5050253;28;20051;-68
2023/04/03 02:55:43;;;;;;;1999.90;999.90;;;0.60;99.90;;;;;;5063347;28;20040;-69
2023/04/03 02:58:09;;;;;;;1999.90;999.90;;;0.60;99.90;;;;;;5048401;28;20093;-69
2023/04/03 03:00:34;;;;;;;1999.90;999.90;;;0.60;99.90;;;;;;5061787;28;20369;-69
2023/04/03 03:03:00;;;;;;;1999.90;999.90;;;0.50;99.90;;;;;;5063069;28;20032;-69
2023/04/03 03:05:27;;;;;;;1999.90;999.90;;;0.50;99.90;;;;;;5062707;28;20090;-69
2023/04/03 03:07:53;;;;;;;1999.90;999.90;;;0.50;99.90;;;;;;5079730;28;20036;-69
2023/04/03 03:10:19;;;;;;;1999.90;999.90;;;0.50;99.90;;;;;;5062583;28;20051;-68
2023/04/03 03:12:45;;;;;;;1999.90;999.90;;;0.50;99.90;;;;;;5064972;28;20111;-69
2023/04/03 03:15:11;;;;;;;1999.90;999.90;;;0.50;99.90;;;;;;5046085;28;20128;-69
2023/04/03 03:17:36;;;;;;;1999.90;999.90;;;0.40;99.90;;;;;;5062613;28;20040;-68
2023/04/03 03:20:06;;;;;;;1999.90;999.90;;;0.40;99.90;;;;;;5063219;28;20040;-69
2023/04/03 03:22:33;;;;;;;1999.90;999.90;;;0.40;99.90;;;;;;5048867;28;20478;-68
2023/04/03 03:24:59;;;;;;;1999.90;999.90;;;0.40;99.90;;;;;;5061474;28;20048;-68
2023/04/03 03:27:24;;;;;;;1999.90;999.90;;;0.30;99.90;;;;;;5062963;28;20550;-69
2023/04/03 03:29:50;;;;;;;1999.90;999.90;;;0.20;99.90;;;;;;5045157;28;20044;-69
2023/04/03 03:32:16;;;;;;;1999.90;999.90;;;0.10;99.90;;;;;;5045886;28;20041;-69
2023/04/03 03:34:41;;;;;;;1999.90;999.90;;;0.00;99.90;;;;;;5060603;28;20408;-69
2023/04/03 03:37:07;;;;;;;1999.90;999.90;;;-0.10;99.90;;;;;;5059129;28;20545;-69
2023/04/03 03:39:33;;;;;;;1999.90;999.90;;;-0.20;99.90;;;;;;5064768;28;20043;-68
2023/04/03 03:41:58;;;;;;;1999.90;999.90;;;-0.30;99.90;;;;;;5058628;28;20049;-69
2023/04/03 03:44:24;;;;;;;1999.90;999.90;;;-0.30;99.90;;;;;;5048555;28;20047;-69
2023/04/03 03:46:49;;;;;;;1999.90;999.90;;;-0.40;99.90;;;;;;5062732;28;20077;-69
2023/04/03 03:49:15;;;;;;;1999.90;999.90;;;-0.40;99.90;;;;;;5046154;28;20041;-69
2023/04/03 03:51:41;;;;;;;1999.90;999.90;;;-0.50;99.90;;;;;;5065530;28;20050;-69
2023/04/03 03:54:07;;;;;;;1999.90;999.90;;;-0.50;99.90;;;;;;5063023;28;20047;-69
2023/04/03 03:56:33;;;;;;;1999.90;999.90;;;-0.50;99.90;;;;;;5060505;28;20511;-69
2023/04/03 03:58:59;;;;;;;1999.90;999.90;;;-0.50;99.90;;;;;;5063435;28;20051;-69
2023/04/03 04:01:25;;;;;;;1999.90;999.90;;;-0.60;99.90;;;;;;5061715;28;20044;-69
2023/04/03 04:03:51;;;;;;;1999.90;999.90;;;-0.60;99.90;;;;;;5064339;28;20496;-69
2023/04/03 04:06:17;;;;;;;1999.90;999.90;;;-0.50;99.90;;;;;;5061511;28;20050;-69
2023/04/03 04:08:42;;;;;;;1999.90;999.90;;;-0.50;99.90;;;;;;5075603;28;20090;-69
2023/04/03 04:11:08;;;;;;;1999.90;999.90;;;-0.40;99.90;;;;;;5062986;28;20151;-69
2023/04/03 04:13:34;;;;;;;1999.90;999.90;;;-0.30;99.90;;;;;;5063219;28;20024;-69
2023/04/03 04:16:00;;;;;;;1999.90;999.90;;;-0.30;99.90;;;;;;5045938;28;20040;-69
2023/04/03 04:18:26;;;;;;;1999.90;999.90;;;-0.20;99.90;;;;;;5060166;28;20039;-69
2023/04/03 04:20:52;;;;;;;1999.90;999.90;;;-0.20;99.90;;;;;;5062593;28;20077;-68
2023/04/03 04:23:18;;;;;;;1999.90;999.90;;;-0.10;99.90;;;;;;5046102;28;20455;-69
2023/04/03 04:25:45;;;;;;;1999.90;999.90;;;0.00;99.90;;;;;;5063613;28;20040;-69
2023/04/03 04:28:11;;;;;;;1999.90;999.90;;;0.00;99.90;;;;;;5041201;28;20401;-69
2023/04/03 04:30:37;;;;;;;1999.90;999.90;;;0.00;99.90;;;;;;5062619;28;20033;-69
2023/04/03 04:33:03;;;;;;;1999.90;999.90;;;0.00;99.90;;;;;;5061271;28;20056;-69
2023/04/03 04:35:29;;;;;;;1999.90;999.90;;;-0.10;99.90;;;;;;5066226;28;20036;-68
2023/04/03 04:37:54;;;;;;;1999.90;999.90;;;0.00;99.90;;;;;;5046793;28;21490;-69
2023/04/03 04:40:20;;;;;;;1999.90;999.90;;;-0.10;99.90;;;;;;5065504;28;20032;-70
2023/04/03 04:42:46;;;;;;;1999.90;999.90;;;-0.10;99.90;;;;;;5046467;28;20048;-69
2023/04/03 04:45:12;;;;;;;1999.90;999.90;;;-0.10;99.90;;;;;;5064841;28;20435;-69
2023/04/03 04:47:37;;;;;;;1999.90;999.90;;;-0.10;99.90;;;;;;5058540;28;20128;-69
2023/04/03 04:50:03;;;;;;;1999.90;999.90;;;-0.20;99.90;;;;;;5063007;28;20041;-69
2023/04/03 04:52:29;;;;;;;1999.90;999.90;;;-0.20;99.90;;;;;;5045077;28;20498;-69
2023/04/03 04:54:55;;;;;;;1999.90;999.90;;;-0.20;99.90;;;;;;5064493;28;20222;-69
2023/04/03 04:57:20;;;;;;;1999.90;999.90;;;-0.20;99.90;;;;;;5061895;28;20040;-69
2023/04/03 04:59:46;;;;;;;1999.90;999.90;;;-0.20;99.90;;;;;;5058778;28;20515;-69
2023/04/03 05:02:12;;;;;;;1999.90;999.90;;;-0.20;99.90;;;;;;5060905;28;20212;-69
2023/04/03 05:04:37;;;;;;;1999.90;999.90;;;-0.20;99.90;;;;;;5062989;28;20446;-69
2023/04/03 05:07:03;;;;;;;1999.90;999.90;;;-0.20;99.90;;;;;;5046886;28;20033;-69
2023/04/03 05:09:29;;;;;;;1999.90;999.90;;;-0.20;99.90;;;;;;5062364;28;20101;-69
2023/04/03 05:11:56;;;;;;;1999.90;999.90;;;-0.30;99.90;;;;;;5063417;28;20045;-69
2023/04/03 05:14:21;;;;;;;1999.90;999.90;;;-0.20;99.90;;;;;;5058901;28;20048;-69
2023/04/03 05:16:47;;;;;;;1999.90;999.90;;;-0.30;99.90;;;;;;5060444;28;20582;-69
2023/04/03 05:19:13;;;;;;;1999.90;999.90;;;-0.30;99.90;;;;;;5063724;28;20110;-69
2023/04/03 05:21:38;;;;;;;1999.90;999.90;;;-0.30;99.90;;;;;;5062351;28;20047;-69
2023/04/03 05:24:04;;;;;;;1999.90;999.90;;;-0.30;99.90;;;;;;5057253;28;20568;-69
2023/04/03 05:26:31;;;;;;;1999.90;999.90;;;-0.30;99.90;;;;;;5059168;28;20057;-69
2023/04/03 05:28:57;;;;;;;1999.90;999.90;;;-0.30;99.90;;;;;;5038132;28;20639;-69
2023/04/03 05:31:23;;;;;;;1999.90;999.90;;;-0.30;99.90;;;;;;5060614;28;20063;-69
2023/04/03 05:33:49;;;;;;;1999.90;999.90;;;-0.30;99.90;;;;;;5065356;28;20056;-69
2023/04/03 05:36:15;;;;;;;1999.90;999.90;;;-0.30;99.90;;;;;;5062100;28;20059;-69
2023/04/03 05:38:40;;;;;;;1999.90;999.90;;;-0.30;99.90;;;;;;5043875;28;20044;-69
2023/04/03 05:41:06;;;;;;;1999.90;999.90;;;-0.20;99.90;;;;;;5062972;28;20047;-69
2023/04/03 05:43:33;;;;;;;1999.90;999.90;;;-0.20;99.90;;;;;;5063485;28;20564;-69
2023/04/03 05:45:59;;;;;;;1999.90;999.90;;;-0.20;99.90;;;;;;5060404;28;20044;-69
2023/04/03 05:48:25;;;;;;;1999.90;999.90;;;0.00;99.90;;;;;;5059697;28;20039;-69
2023/04/03 05:50:51;;;;;;;1999.90;999.90;;;0.00;99.90;;;;;;5056857;28;20041;-69
2023/04/03 05:53:23;;;;;;;1999.90;999.90;;;0.00;99.90;;;;;;5052699;28;20036;-70
2023/04/03 05:55:48;;;;;;;1999.90;999.90;;;0.00;99.90;;;;;;5059065;28;20040;-69
2023/04/03 05:58:14;;;;;;;1999.90;999.90;;;0.10;99.90;;;;;;5061666;28;20043;-68
2023/04/03 06:00:40;;;;;;;1999.90;999.90;;;0.20;99.90;;;;;;5041161;28;20047;-69
2023/04/03 06:03:06;;;;;;;1999.90;999.90;;;0.40;99.90;;;;;;5056881;28;20040;-68
2023/04/03 06:05:31;;;;;;;1999.90;999.90;;;0.50;99.90;;;;;;5061375;28;20072;-68
2023/04/03 06:07:57;;;;;;;1999.90;999.90;;;0.60;99.90;;;;;;5060425;28;20129;-69
2023/04/03 06:10:23;;;;;;;1999.90;999.90;;;0.90;99.90;;;;;;5045585;28;20040;-69
2023/04/03 06:12:50;;;;;;;1999.90;999.90;;;1.10;99.90;;;;;;5059998;28;20052;-69
2023/04/03 06:15:16;;;;;;;1999.90;999.90;;;1.40;99.90;;;;;;5063315;28;20028;-69
2023/04/03 06:17:42;;;;;;;1999.90;999.90;;;1.60;99.90;;;;;;5061576;28;20040;-69
2023/04/03 06:20:09;;;;;;;1999.90;999.90;;;1.70;99.90;;;;;;5060240;28;20050;-69
2023/04/03 06:22:35;;;;;;;1999.90;999.90;;;1.70;99.90;;;;;;5061296;28;20039;-69
2023/04/03 06:25:01;;;;;;;1999.90;999.90;;;1.70;99.90;;;;;;5057106;28;20052;-68
2023/04/03 06:27:27;;;;;;;1999.90;999.90;;;1.90;99.90;;;;;;5063559;28;20123;-69
2023/04/03 06:29:53;;;;;;;1999.90;999.90;;;2.00;99.90;;;;;;5060458;28;20488;-69
2023/04/03 06:32:18;;;;;;;1999.90;999.90;;;2.20;99.90;;;;;;5064618;28;20049;-69
2023/04/03 06:34:44;;;;;;;1999.90;999.90;;;2.20;99.90;;;;;;5058852;28;20032;-69
2023/04/03 06:37:29;;;;;;;1999.90;999.90;;;2.00;99.90;;;;;;5057122;28;20067;-69
2023/04/03 06:39:55;;;;;;;1999.90;999.90;;;1.90;99.90;;;;;;5060662;28;20041;-69
2023/04/03 06:42:21;;;;;;;1999.90;999.90;;;2.00;99.90;;;;;;5061776;28;20036;-69
2023/04/03 06:44:47;;;;;;;1999.90;999.90;;;2.00;99.90;;;;;;5060847;28;20890;-69
2023/04/03 06:47:14;;;;;;;1999.90;999.90;;;2.00;99.90;;;;;;5045509;28;20053;-69
2023/04/03 06:49:40;;;;;;;1999.90;999.90;;;2.00;99.90;;;;;;5079869;28;20046;-69
2023/04/03 06:52:05;;;;;;;1999.90;999.90;;;2.00;99.90;;;;;;5047884;28;20382;-69
2023/04/03 06:54:31;;;;;;;1999.90;999.90;;;2.00;99.90;;;;;;5061125;28;20113;-69
2023/04/03 06:56:58;;;;;;;1999.90;999.90;;;2.10;99.90;;;;;;5037884;28;20037;-69
2023/04/03 06:59:24;;;;;;;1999.90;999.90;;;2.20;99.90;;;;;;5063114;28;20055;-70
2023/04/03 07:01:50;;;;;;;1999.90;999.90;;;2.30;99.90;;;;;;5048621;28;20033;-69
2023/04/03 07:04:16;;;;;;;1999.90;999.90;;;2.30;99.90;;;;;;5060333;28;20083;-70
2023/04/03 07:06:42;;;;;;;1999.90;999.90;;;2.40;99.90;;;;;;5061374;28;20125;-70
2023/04/03 07:09:10;;;;;;;1999.90;999.90;;;2.50;99.90;;;;;;5063011;28;20182;-70
2023/04/03 07:11:36;;;;;;;1999.90;999.90;;;2.50;99.90;;;;;;5046607;28;20041;-70
2023/04/03 07:14:02;;;;;;;1999.90;999.90;;;2.60;99.90;;;;;;5059676;28;20473;-69
2023/04/03 07:16:30;;;;;;;1999.90;999.90;;;2.70;99.90;;;;;;5062039;28;20036;-70
2023/04/03 07:18:57;;;;;;;1999.90;999.90;;;2.70;99.90;;;;;;5047597;28;20048;-68
2023/04/03 07:21:23;;;;;;;1999.90;999.90;;;2.80;99.90;;;;;;5066132;28;20036;-71
2023/04/03 07:23:49;;;;;;;1999.90;999.90;;;2.90;99.90;;;;;;5061905;28;20056;-69
2023/04/03 07:26:15;;;;;;;1999.90;999.90;;;3.00;99.90;;;;;;5065822;28;20064;-71
2023/04/03 07:28:41;;;;;;;1999.90;999.90;;;3.10;99.90;;;;;;5063323;28;20059;-71
2023/04/03 07:31:10;;;;;;;1999.90;999.90;;;3.20;99.90;;;;;;5058480;28;20116;-71
2023/04/03 07:33:37;;;;;;;1999.90;999.90;;;3.30;99.90;;;;;;5047705;28;20040;-71
2023/04/03 07:36:03;;;;;;;1999.90;999.90;;;3.40;99.90;;;;;;5064808;28;20048;-70
2023/04/03 07:38:29;;;;;;;1999.90;999.90;;;3.50;99.90;;;;;;5062578;28;20040;-71
2023/04/03 07:40:55;;;;;;;1999.90;999.90;;;3.50;99.90;;;;;;5064351;28;20166;-70
2023/04/03 07:43:21;;;;;;;1999.90;999.90;;;3.60;99.90;;;;;;5064599;28;20506;-70
2023/04/03 07:45:51;;;;;;;1999.90;999.90;;;3.70;99.90;;;;;;5039560;28;20045;-70
2023/04/03 07:48:18;;;;;;;1999.90;999.90;;;3.70;99.90;;;;;;5064681;28;20071;-70
2023/04/03 07:50:44;;;;;;;1999.90;999.90;;;3.80;99.90;;;;;;5064964;28;20488;-70
2023/04/03 07:53:10;;;;;;;1999.90;999.90;;;3.80;99.90;;;;;;5064956;28;20089;-70
2023/04/03 07:55:42;;;;;;;1999.90;999.90;;;3.90;99.90;;;;;;5047040;28;20040;-71
2023/04/03 07:58:09;;;;;;;1999.90;999.90;;;4.00;99.90;;;;;;5062827;28;20041;-69
2023/04/03 08:00:35;;;;;;;1999.90;999.90;;;4.20;99.90;;;;;;5060316;28;20416;-69
2023/04/03 08:03:01;;;;;;;1999.90;999.90;;;4.40;99.90;;;;;;5054672;28;20085;-70
2023/04/03 08:05:26;;;;;;;1999.90;999.90;;;4.50;99.90;;;;;;5042258;28;20036;-70
2023/04/03 08:07:52;;;;;;;1999.90;999.90;;;4.50;99.90;;;;;;5060866;28;20089;-69
2023/04/03 08:10:18;;;;;;;1999.90;999.90;;;4.60;99.90;;;;;;5055299;28;20192;-70
2023/04/03 08:12:48;;;;;;;1999.90;999.90;;;4.50;99.90;;;;;;5061356;28;20477;-69
2023/04/03 08:15:13;;;;;;;1999.90;999.90;;;4.50;99.90;;;;;;5062449;28;20041;-69
2023/04/03 08:17:39;;;;;;;1999.90;999.90;;;4.50;99.90;;;;;;5059485;28;20059;-70
2023/04/03 08:20:09;;;;;;;1999.90;999.90;;;4.60;99.90;;;;;;5064581;28;20036;-70
2023/04/03 08:22:35;;;;;;;1999.90;999.90;;;4.80;99.90;;;;;;5059096;28;20040;-70
2023/04/03 08:25:01;;;;;;;1999.90;999.90;;;4.90;99.90;;;;;;5062371;28;20537;-69
2023/04/03 08:27:28;;;;;;;1999.90;999.90;;;5.00;99.90;;;;;;5058268;28;20048;-70
2023/04/03 08:29:54;;;;;;;1999.90;999.90;;;5.00;99.90;;;;;;5060190;28;20032;-71
2023/04/03 08:32:20;;;;;;;1999.90;999.90;;;5.00;99.90;;;;;;5044871;28;20484;-69
2023/04/03 08:34:46;;;;;;;1999.90;999.90;;;5.10;99.90;;;;;;5045712;28;20064;-70
2023/04/03 08:37:12;;;;;;;1999.90;999.90;;;5.30;99.90;;;;;;5055867;28;20159;-71
2023/04/03 08:39:37;;;;;;;1999.90;999.90;;;5.50;99.90;;;;;;5063112;28;20061;-70
2023/04/03 08:42:15;;;;;;;1999.90;999.90;;;6.00;99.90;;;;;;5064562;28;20494;-70
2023/04/03 08:44:49;;;;;;;1999.90;999.90;;;6.70;99.90;;;;;;5061852;28;20051;-70
2023/04/03 08:47:41;;;;;;;1999.90;999.90;;;6.80;99.90;;;;;;5065414;28;20048;-70
2023/04/03 08:50:13;;;;;;;1999.90;999.90;;;6.90;99.90;;;;;;5047454;28;20463;-70
2023/04/03 08:52:46;;;;;;;1999.90;999.90;;;7.40;99.90;;;;;;5061443;28;20079;-70
2023/04/03 08:55:34;;;;;;;1999.90;999.90;;;7.90;99.90;;;;;;5054760;28;20072;-71
2023/04/03 08:58:11;;;;;;;1999.90;999.90;;;8.10;99.90;;;;;;5056580;28;20044;-72
2023/04/03 09:00:55;;;;;;;1999.90;999.90;;;8.40;99.50;;;;;;5064856;28;20033;-71
2023/04/03 09:03:22;;;;;;;1999.90;999.90;;;8.90;99.70;;;;;;5043410;28;20418;-70
2023/04/03 09:05:56;;;;;;;1999.90;999.90;;;9.30;98.90;;;;;;5062746;28;20044;-71
2023/04/03 09:08:26;;;;;;;1999.90;999.90;;;9.40;96.60;;;;;;5061835;28;20162;-71
2023/04/03 09:11:20;;;;;;;1999.90;999.90;;;9.30;94.40;;;;;;5063588;28;20040;-71
2023/04/03 09:14:04;;;;;;;1999.90;999.90;;;9.20;93.20;;;;;;5056595;28;20045;-71
2023/04/03 09:16:43;;;;;;;1999.90;999.90;;;9.10;92.30;;;;;;5043334;28;20045;-70
2023/04/03 09:19:15;;;;;;;1999.90;999.90;;;9.00;90.80;;;;;;5060174;28;20040;-70
2023/04/03 09:21:42;;;;;;;1999.90;999.90;;;9.10;90.80;;;;;;5060217;28;20119;-71
2023/04/03 09:24:12;;;;;;;1999.90;999.90;;;9.20;90.70;;;;;;5059055;28;20040;-70
2023/04/03 09:26:52;;;;;;;1999.90;999.90;;;9.10;89.50;;;;;;5063582;28;20157;-70
2023/04/03 09:29:21;;;;;;;1999.90;999.90;;;9.00;87.30;;;;;;5062895;28;20051;-70
2023/04/03 09:31:49;;;;;;;1999.90;999.90;;;8.90;87.80;;;;;;5054017;28;20048;-70
2023/04/03 09:34:32;;;;;;;1999.90;999.90;;;8.90;87.00;;;;;;5062940;28;20063;-70
2023/04/03 09:37:06;;;;;;;1999.90;999.90;;;8.90;88.30;;;;;;5062625;28;20047;-70
2023/04/03 09:39:50;;;;;;;1999.90;999.90;;;8.90;90.50;;;;;;5063552;28;20508;-71
2023/04/03 09:42:21;;;;;;;1999.90;999.90;;;9.00;90.10;;;;;;5060424;28;20508;-70
2023/04/03 09:45:22;;;;;;;1999.90;999.90;;;9.10;91.30;;;;;;5044230;28;20666;-70
2023/04/03 09:47:47;;;;;;;1999.90;999.90;;;9.20;89.50;;;;;;5055899;28;20052;-71
2023/04/03 09:50:13;;;;;;;1999.90;999.90;;;9.10;88.20;;;;;;5059089;28;20588;-70
2023/04/03 09:52:41;;;;;;;1999.90;999.90;;;9.00;84.90;;;;;;5062002;28;20044;-71
2023/04/03 09:55:28;;;;;;;1999.90;999.90;;;8.80;85.20;;;;;;5063931;28;20461;-70
2023/04/03 09:58:03;;;;;;;1999.90;999.90;;;8.80;86.90;;;;;;5062017;28;20493;-70
2023/04/03 10:00:34;;;;;;;1999.90;999.90;;;8.90;87.90;;;;;;5060893;28;20056;-70
2023/04/03 10:03:01;;;;;;;1999.90;999.90;;;9.20;90.00;;;;;;5044024;28;20040;-70
2023/04/03 10:05:37;;;;;;;1999.90;999.90;;;9.30;87.10;;;;;;5054402;28;20044;-71
2023/04/03 10:08:14;;;;;;;1999.90;999.90;;;9.20;82.80;;;;;;5061376;28;20070;-70
2023/04/03 10:10:41;;;;;;;1999.90;999.90;;;9.10;85.60;;;;;;5059961;28;20101;-70
2023/04/03 10:13:16;;;;;;;1999.90;999.90;;;9.30;83.40;;;;;;5062426;28;20045;-70
2023/04/03 10:15:52;;;;;;;1999.90;999.90;;;9.30;81.90;;;;;;5060285;28;20112;-70
2023/04/03 10:18:42;;;;;;;1999.90;999.90;;;9.20;82.10;;;;;;5061086;28;20033;-70
2023/04/03 10:21:30;;;;;;;1999.90;999.90;;;9.20;80.80;;;;;;5067160;28;20617;-71
2023/04/03 10:24:14;;;;;;;1999.90;999.90;;;9.20;81.30;;;;;;5043675;28;20585;-70
2023/04/03 10:26:48;;;;;;;1999.90;999.90;;;9.40;80.80;;;;;;5058508;28;20052;-71
2023/04/03 10:29:14;;;;;;;1999.90;999.90;;;9.50;82.90;;;;;;5041664;28;20063;-71
2023/04/03 10:31:59;;;;;;;1999.90;999.90;;;9.60;81.20;;;;;;5065885;28;20032;-70
2023/04/03 10:34:31;;;;;;;1999.90;999.90;;;9.70;82.10;;;;;;5056187;28;20037;-71
2023/04/03 10:37:18;;;;;;;1999.90;999.90;;;9.80;79.80;;;;;;5062349;28;20551;-71
2023/04/03 10:39:54;;;;;;;1999.90;999.90;;;9.90;80.80;;;;;;5061937;28;20044;-70
2023/04/03 10:42:29;;;;;;;1999.90;999.90;;;10.00;74.80;;;;;;5065053;28;20071;-70
2023/04/03 10:45:07;;;;;;;1999.90;999.90;;;9.90;76.60;;;;;;5058679;28;20137;-70
2023/04/03 10:48:04;;;;;;;1999.90;999.90;;;9.90;78.30;;;;;;5063988;28;20405;-70
2023/04/03 10:50:35;;;;;;;1999.90;999.90;;;10.00;73.30;;;;;;5043503;28;20476;-70
2023/04/03 10:53:11;;;;;;;1999.90;999.90;;;9.90;74.80;;;;;;5060651;28;20117;-70
2023/04/03 10:55:56;;;;;;;1999.90;999.90;;;9.90;74.00;;;;;;5062072;28;20044;-70
2023/04/03 10:58:30;;;;;;;1999.90;999.90;;;9.80;74.00;;;;;;5059469;28;20046;-70
2023/04/03 11:01:01;;;;;;;1999.90;999.90;;;9.80;73.60;;;;;;5057527;28;20106;-70
2023/04/03 11:03:47;;;;;;;1999.90;999.90;;;9.80;76.50;;;;;;5061059;28;20480;-70
2023/04/03 11:06:15;;;;;;;1999.90;999.90;;;10.00;78.20;;;;;;5044574;28;20178;-70
2023/04/03 11:08:51;;;;;;;1999.90;999.90;;;10.20;73.20;;;;;;5059329;28;20146;-70
2023/04/03 11:11:21;;;;;;;1999.90;999.90;;;10.30;72.20;;;;;;5060065;28;20048;-70
2023/04/03 11:14:02;;;;;;;1999.90;999.90;;;10.20;68.50;;;;;;5059940;28;20043;-70
2023/04/03 11:16:33;;;;;;;1999.90;999.90;;;10.10;72.30;;;;;;5060212;28;20493;-70
2023/04/03 11:19:21;;;;;;;1999.90;999.90;;;10.30;75.70;;;;;;5052627;28;20040;-70
2023/04/03 11:22:13;;;;;;;1999.90;999.90;;;10.50;75.20;;;;;;5045958;28;20102;-70
2023/04/03 11:24:42;;;;;;;1999.90;999.90;;;10.60;72.60;;;;;;5055233;28;20124;-70
2023/04/03 11:27:22;;;;;;;1999.90;999.90;;;10.70;75.00;;;;;;5045464;28;20056;-70
2023/04/03 11:29:50;;;;;;;1999.90;999.90;;;10.80;71.10;;;;;;5057809;28;20085;-71
2023/04/03 11:32:53;;;;;;;1999.90;999.90;;;10.60;70.20;;;;;;5062218;28;20036;-71
2023/04/03 11:35:20;;;;;;;1999.90;999.90;;;10.60;68.10;;;;;;5076739;28;20042;-71
2023/04/03 11:37:50;;;;;;;1999.90;999.90;;;10.50;69.80;;;;;;5044297;28;20074;-70
2023/04/03 11:40:17;;;;;;;1999.90;999.90;;;10.60;68.20;;;;;;5053141;28;20041;-71
2023/04/03 11:42:49;;;;;;;1999.90;999.90;;;10.50;68.90;;;;;;5064328;28;20048;-70
2023/04/03 11:45:37;;;;;;;1999.90;999.90;;;10.60;67.20;;;;;;5045222;28;20402;-70
2023/04/03 11:48:33;;;;;;;1999.90;999.90;;;10.60;66.70;;;;;;5025078;28;20405;-70
2023/04/03 11:51:17;;;;;;;1999.90;999.90;;;10.60;68.30;;;;;;5061881;28;20386;-71
2023/04/03 11:53:43;;;;;;;1999.90;999.90;;;10.70;67.80;;;;;;5060727;28;20041;-70
2023/04/03 11:56:24;;;;;;;1999.90;999.90;;;10.70;68.20;;;;;;5060987;28;20424;-70
2023/04/03 11:59:23;;;;;;;1999.90;999.90;;;10.70;68.50;;;;;;5061002;28;20051;-71
2023/04/03 12:01:49;;;;;;;1999.90;999.90;;;10.90;71.80;;;;;;5056658;28;20131;-70
2023/04/03 12:04:17;;;;;;;1999.90;999.90;;;11.00;67.90;;;;;;5042389;28;20104;-70
2023/04/03 12:06:49;;;;;;;1999.90;999.90;;;11.00;64.90;;;;;;5061149;28;20094;-70
2023/04/03 12:09:40;;;;;;;1999.90;999.90;;;10.90;66.90;;;;;;5063054;28;20040;-70
2023/04/03 12:12:27;;;;;;;1999.90;999.90;;;10.80;63.80;;;;;;5062575;28;20127;-70
2023/04/03 12:14:53;;;;;;;1999.90;999.90;;;10.60;66.50;;;;;;5073872;28;20052;-71
2023/04/03 12:17:24;;;;;;;1999.90;999.90;;;10.60;68.80;;;;;;5038428;28;20062;-71